createdAt,value
2022-10-13T00:00:51.348Z,495
2022-10-13T00:01:57.895Z,499.7
2022-10-13T00:03:04.426Z,496.8
2022-10-13T00:04:10.977Z,495.6
2022-10-13T00:05:17.502Z,501.7
2022-10-13T00:06:24.037Z,498.8
2022-10-13T00:07:30.585Z,497.1
2022-10-13T00:08:37.117Z,502
2022-10-13T00:09:43.666Z,489.7
2022-10-13T00:10:50.192Z,496.3
2022-10-13T00:11:56.737Z,498.6
2022-10-13T00:13:03.272Z,497.3
2022-10-13T00:14:09.810Z,490.3
2022-10-13T00:15:16.356Z,492.2
2022-10-13T00:16:22.898Z,494.8
2022-10-13T00:17:29.436Z,490.7
2022-10-13T00:18:35.981Z,492.2
2022-10-13T00:19:42.521Z,498
2022-10-13T00:20:49.304Z,496.6
2022-10-13T00:21:56.063Z,493.5
2022-10-13T00:23:02.840Z,498.4
2022-10-13T00:24:09.614Z,495.9
2022-10-13T00:25:16.387Z,498.7
2022-10-13T00:26:23.160Z,501.2
2022-10-13T00:27:29.944Z,498.8
2022-10-13T00:28:36.710Z,495.6
2022-10-13T00:29:43.489Z,499.6
2022-10-13T00:30:50.254Z,495.4
2022-10-13T00:31:57.037Z,499.3
2022-10-13T00:33:03.802Z,502.9
2022-10-13T00:34:10.585Z,504.5
2022-10-13T00:35:17.904Z,500.3
2022-10-13T00:36:56.615Z,506.3
2022-10-13T00:38:34.500Z,503.4
2022-10-13T00:39:40.909Z,505.2
2022-10-13T00:40:47.326Z,504.8
2022-10-13T00:41:53.741Z,500.6
2022-10-13T00:43:00.173Z,509.9
2022-10-13T00:44:06.604Z,512.4
2022-10-13T00:45:13.017Z,514.3
2022-10-13T00:46:19.429Z,507
2022-10-13T00:47:25.856Z,511.3
2022-10-13T00:48:32.273Z,509.7
2022-10-13T00:49:38.694Z,514.3
2022-10-13T00:50:45.120Z,506.7
2022-10-13T00:51:51.527Z,511
2022-10-13T00:52:57.956Z,510.5
2022-10-13T00:54:04.377Z,506.8
2022-10-13T00:55:10.806Z,504.4
2022-10-13T00:56:17.221Z,504.2
2022-10-13T00:57:23.645Z,512
2022-10-13T00:58:30.080Z,509.2
2022-10-13T00:59:36.492Z,513
2022-10-13T01:00:42.920Z,505.8
2022-10-13T01:01:49.335Z,515.1
2022-10-13T01:02:55.778Z,512.7
2022-10-13T01:04:02.168Z,509.7
2022-10-13T01:05:08.591Z,509.4
2022-10-13T01:06:15.140Z,509.4
2022-10-13T01:07:21.702Z,504.8
2022-10-13T01:08:28.212Z,509.2
2022-10-13T01:09:34.751Z,506.4
2022-10-13T01:10:41.283Z,503.1
2022-10-13T01:11:47.826Z,503.8
2022-10-13T01:12:54.359Z,505.4
2022-10-13T01:14:00.885Z,508.7
2022-10-13T01:15:07.426Z,501
2022-10-13T01:16:14.022Z,510.8
2022-10-13T01:17:20.510Z,498.2
2022-10-13T01:18:27.045Z,507.8
2022-10-13T01:19:33.585Z,505.8
2022-10-13T01:21:22.923Z,506.7
2022-10-13T01:22:29.706Z,506.1
2022-10-13T01:23:36.473Z,504.6
2022-10-13T01:24:43.241Z,504
2022-10-13T01:25:50.040Z,502.9
2022-10-13T01:26:56.787Z,506.6
2022-10-13T01:28:03.569Z,504.4
2022-10-13T01:29:10.335Z,506
2022-10-13T01:30:17.111Z,504.5
2022-10-13T01:31:23.878Z,507.6
2022-10-13T01:32:30.684Z,501.5
2022-10-13T01:33:37.447Z,513.8
2022-10-13T01:34:44.209Z,503.6
2022-10-13T01:38:02.400Z,501.6
2022-10-13T01:39:40.419Z,508.6
2022-10-13T01:40:46.931Z,504.4
2022-10-13T01:41:53.468Z,504.2
2022-10-13T01:43:00.012Z,514.1
2022-10-13T01:44:06.542Z,503
2022-10-13T01:45:13.075Z,508.3
2022-10-13T01:46:19.656Z,509.6
2022-10-13T01:47:26.147Z,511.8
2022-10-13T01:48:32.694Z,506.5
2022-10-13T01:49:39.237Z,510.8
2022-10-13T01:50:45.778Z,514.7
2022-10-13T01:51:52.322Z,515.4
2022-10-13T01:52:58.854Z,513.4
2022-10-13T01:54:05.432Z,509.3
2022-10-13T01:55:11.932Z,512
2022-10-13T01:56:18.494Z,513.9
2022-10-13T01:57:25.021Z,511.9
2022-10-13T01:58:31.567Z,513.1
2022-10-13T01:59:38.104Z,515.3
2022-10-13T02:00:44.705Z,520.5
2022-10-13T02:01:51.187Z,511.7
2022-10-13T02:02:57.726Z,515.6
2022-10-13T02:04:04.270Z,518.8
2022-10-13T02:05:10.802Z,517.4
2022-10-13T02:06:17.342Z,516.1
2022-10-13T02:07:24.171Z,517.7
2022-10-13T02:08:30.925Z,518.3
2022-10-13T02:09:37.679Z,511
2022-10-13T02:10:44.466Z,516.5
2022-10-13T02:11:51.245Z,516.5
2022-10-13T02:12:58.025Z,514.4
2022-10-13T02:14:04.798Z,516
2022-10-13T02:15:11.581Z,519.5
2022-10-13T02:16:18.347Z,521.6
2022-10-13T02:17:25.127Z,515.4
2022-10-13T02:18:31.957Z,517.2
2022-10-13T02:19:38.692Z,516.8
2022-10-13T02:20:45.474Z,517.9
2022-10-13T02:24:03.662Z,518.3
2022-10-13T02:25:41.683Z,519.7
2022-10-13T02:26:48.226Z,516.6
2022-10-13T02:27:54.759Z,522.8
2022-10-13T02:29:01.305Z,511.6
2022-10-13T02:30:07.841Z,521.5
2022-10-13T02:31:14.419Z,514.8
2022-10-13T02:32:21.027Z,517.3
2022-10-13T02:34:34.052Z,512.2
2022-10-13T02:35:40.551Z,520.4
2022-10-13T02:36:47.091Z,519.9
2022-10-13T02:37:53.643Z,520.6
2022-10-13T02:39:00.181Z,516.9
2022-10-13T02:40:06.719Z,522.8
2022-10-13T02:41:13.263Z,517.7
2022-10-13T02:42:19.823Z,521.8
2022-10-13T02:43:26.341Z,518.5
2022-10-13T02:44:32.889Z,515.8
2022-10-13T02:45:39.418Z,520.2
2022-10-13T02:46:45.983Z,518.4
2022-10-13T02:47:52.504Z,526.2
2022-10-13T02:48:59.036Z,516.6
2022-10-13T02:50:05.572Z,520.9
2022-10-13T02:51:12.109Z,521.4
2022-10-13T02:52:18.649Z,524.2
2022-10-13T02:53:25.418Z,520.9
2022-10-13T02:54:32.194Z,522.6
2022-10-13T02:55:38.966Z,525.4
2022-10-13T02:56:45.747Z,521.3
2022-10-13T02:57:52.506Z,529
2022-10-13T02:58:59.289Z,523.5
2022-10-13T03:00:06.054Z,525.2
2022-10-13T03:01:12.839Z,523.1
2022-10-13T03:02:19.603Z,529.2
2022-10-13T03:03:26.380Z,528.3
2022-10-13T03:04:33.153Z,526
2022-10-13T03:05:39.924Z,529.2
2022-10-13T03:06:46.703Z,527.9
2022-10-13T03:10:04.884Z,528.7
2022-10-13T03:11:42.771Z,528
2022-10-13T03:12:49.190Z,528.6
2022-10-13T03:13:55.606Z,529.7
2022-10-13T03:15:02.031Z,535
2022-10-13T03:16:08.444Z,528.7
2022-10-13T03:17:14.858Z,536.2
2022-10-13T03:18:21.283Z,529.6
2022-10-13T03:19:27.687Z,531.7
2022-10-13T03:20:34.104Z,535.8
2022-10-13T03:21:40.526Z,530.4
2022-10-13T03:22:46.960Z,528.7
2022-10-13T03:23:53.362Z,536.5
2022-10-13T03:24:59.773Z,534
2022-10-13T03:26:06.191Z,532.1
2022-10-13T03:27:12.608Z,533.3
2022-10-13T03:28:19.020Z,533.3
2022-10-13T03:29:25.433Z,532.7
2022-10-13T03:30:31.863Z,537.8
2022-10-13T03:31:38.268Z,531.9
2022-10-13T03:32:44.699Z,536.6
2022-10-13T03:33:51.124Z,532.3
2022-10-13T03:34:57.527Z,540.9
2022-10-13T03:36:03.959Z,534.1
2022-10-13T03:37:10.380Z,539.4
2022-10-13T03:38:16.783Z,541.8
2022-10-13T03:39:23.336Z,535.2
2022-10-13T03:40:29.876Z,535.7
2022-10-13T03:41:36.420Z,537.5
2022-10-13T03:42:42.967Z,538.7
2022-10-13T03:43:49.521Z,533.5
2022-10-13T03:44:56.032Z,538.9
2022-10-13T03:46:02.567Z,536.5
2022-10-13T03:47:09.106Z,537.6
2022-10-13T03:48:15.651Z,532.4
2022-10-13T03:49:22.218Z,536.8
2022-10-13T03:50:28.717Z,534.5
2022-10-13T03:51:35.255Z,535.5
2022-10-13T03:52:41.802Z,530.2
2022-10-13T03:54:31.136Z,538.8
2022-10-13T03:55:37.919Z,543.3
2022-10-13T03:56:44.692Z,530.8
2022-10-13T03:57:51.474Z,541.2
2022-10-13T03:58:58.280Z,533.2
2022-10-13T04:00:05.028Z,534.6
2022-10-13T04:01:11.800Z,534.3
2022-10-13T04:02:18.561Z,532.1
2022-10-13T04:03:25.344Z,535.7
2022-10-13T04:04:32.114Z,539.5
2022-10-13T04:05:38.884Z,543.3
2022-10-13T04:06:45.665Z,531.8
2022-10-13T04:07:52.436Z,537.1
2022-10-13T04:11:10.623Z,537.8
2022-10-13T04:12:48.514Z,538.2
2022-10-13T04:13:54.935Z,540.2
2022-10-13T04:15:01.362Z,539.3
2022-10-13T04:16:07.780Z,534.9
2022-10-13T04:17:14.202Z,538.2
2022-10-13T04:18:20.619Z,531.2
2022-10-13T04:19:27.043Z,534.6
2022-10-13T04:20:33.463Z,535.7
2022-10-13T04:21:39.922Z,534.5
2022-10-13T04:22:46.303Z,539.6
2022-10-13T04:23:52.724Z,537.5
2022-10-13T04:24:59.158Z,532.9
2022-10-13T04:26:05.570Z,531.7
2022-10-13T04:27:11.986Z,536.3
2022-10-13T04:28:18.407Z,535.2
2022-10-13T04:29:24.842Z,539.6
2022-10-13T04:30:31.247Z,534.6
2022-10-13T04:31:37.661Z,538.5
2022-10-13T04:32:44.085Z,539
2022-10-13T04:33:50.508Z,534.6
2022-10-13T04:34:56.931Z,534.8
2022-10-13T04:36:03.348Z,530.1
2022-10-13T04:37:09.772Z,535.1
2022-10-13T04:38:16.192Z,534.5
2022-10-13T04:39:22.606Z,530.3
2022-10-13T04:40:29.168Z,532.3
2022-10-13T04:41:35.707Z,539.3
2022-10-13T04:42:42.260Z,541.8
2022-10-13T04:43:48.788Z,537.9
2022-10-13T04:44:55.329Z,531.9
2022-10-13T04:46:01.868Z,535
2022-10-13T04:47:08.416Z,533.3
2022-10-13T04:48:14.946Z,533.6
2022-10-13T04:49:21.499Z,533.4
2022-10-13T04:50:28.005Z,539.1
2022-10-13T04:51:34.538Z,534.8
2022-10-13T04:52:41.141Z,538.9
2022-10-13T04:53:47.648Z,538
2022-10-13T04:55:36.943Z,532.8
2022-10-13T04:56:43.711Z,536.1
2022-10-13T04:57:50.484Z,536.9
2022-10-13T04:58:57.270Z,538.3
2022-10-13T05:00:04.012Z,539.8
2022-10-13T05:01:10.784Z,534.3
2022-10-13T05:02:17.552Z,535
2022-10-13T05:03:24.323Z,538.8
2022-10-13T05:04:31.100Z,533.9
2022-10-13T05:05:37.895Z,541.8
2022-10-13T05:06:44.651Z,539.9
2022-10-13T05:07:51.424Z,537.3
2022-10-13T05:08:58.201Z,533.2
2022-10-13T05:12:16.423Z,539.7
2022-10-13T05:13:54.283Z,537.9
2022-10-13T05:15:00.696Z,535.6
2022-10-13T05:16:07.122Z,538
2022-10-13T05:17:13.545Z,539.6
2022-10-13T05:18:19.982Z,533.2
2022-10-13T05:19:26.378Z,540
2022-10-13T05:20:32.803Z,537.2
2022-10-13T05:21:39.224Z,541.8
2022-10-13T05:22:45.644Z,538
2022-10-13T05:23:52.071Z,541.5
2022-10-13T05:24:58.526Z,540.8
2022-10-13T05:26:04.900Z,543.8
2022-10-13T05:27:11.321Z,547
2022-10-13T05:28:17.739Z,538.9
2022-10-13T05:29:24.169Z,538.3
2022-10-13T05:30:30.582Z,540.2
2022-10-13T05:31:36.999Z,539.6
2022-10-13T05:32:43.422Z,539.7
2022-10-13T05:33:49.842Z,545
2022-10-13T05:34:56.263Z,538.3
2022-10-13T05:36:02.730Z,541.4
2022-10-13T05:37:09.095Z,543.9
2022-10-13T05:38:15.547Z,540.8
2022-10-13T05:39:21.934Z,536.6
2022-10-13T05:40:28.358Z,537.7
2022-10-13T05:41:34.921Z,536.9
2022-10-13T05:42:41.454Z,542.4
2022-10-13T05:43:47.996Z,539.5
2022-10-13T05:44:54.523Z,540.3
2022-10-13T05:46:01.061Z,540.7
2022-10-13T05:47:07.604Z,539.3
2022-10-13T05:48:14.129Z,537.6
2022-10-13T05:49:20.667Z,539.4
2022-10-13T05:50:27.207Z,544.1
2022-10-13T05:51:33.742Z,539.3
2022-10-13T05:52:40.275Z,541
2022-10-13T05:53:46.809Z,543.3
2022-10-13T05:54:53.389Z,543.3
2022-10-13T05:56:42.727Z,537.5
2022-10-13T05:57:49.473Z,541.9
2022-10-13T05:58:56.245Z,538.8
2022-10-13T06:00:03.006Z,539.9
2022-10-13T06:01:09.828Z,544.4
2022-10-13T06:02:16.565Z,540.1
2022-10-13T06:03:23.345Z,542.8
2022-10-13T06:04:30.102Z,540.7
2022-10-13T06:05:36.873Z,544.9
2022-10-13T06:06:43.686Z,544.5
2022-10-13T06:07:50.451Z,540.7
2022-10-13T06:08:57.194Z,542.5
2022-10-13T06:10:03.976Z,541.9
2022-10-13T06:13:22.155Z,539.9
2022-10-13T06:15:00.052Z,541.3
2022-10-13T06:16:06.457Z,540.7
2022-10-13T06:17:12.876Z,544.8
2022-10-13T06:18:19.297Z,544.6
2022-10-13T06:19:25.706Z,547.2
2022-10-13T06:20:32.131Z,548.5
2022-10-13T06:21:38.544Z,544.2
2022-10-13T06:22:44.999Z,543.5
2022-10-13T06:23:51.380Z,553.2
2022-10-13T06:24:57.802Z,548.9
2022-10-13T06:26:04.208Z,553.7
2022-10-13T06:27:10.636Z,544.8
2022-10-13T06:28:17.041Z,544.3
2022-10-13T06:29:23.476Z,550.5
2022-10-13T06:30:29.903Z,546.9
2022-10-13T06:31:36.348Z,547.8
2022-10-13T06:32:42.775Z,548.5
2022-10-13T06:33:49.205Z,553
2022-10-13T06:34:55.671Z,547.3
2022-10-13T06:36:02.084Z,545.6
2022-10-13T06:37:08.495Z,547.1
2022-10-13T06:38:14.937Z,548.6
2022-10-13T06:39:21.371Z,548.4
2022-10-13T06:40:27.806Z,546.4
2022-10-13T06:41:34.242Z,546
2022-10-13T06:42:40.806Z,547
2022-10-13T06:43:47.360Z,548.9
2022-10-13T06:44:53.922Z,550.1
2022-10-13T06:46:00.465Z,550
2022-10-13T06:47:07.026Z,548.3
2022-10-13T06:48:13.566Z,549.8
2022-10-13T06:49:20.117Z,547.3
2022-10-13T06:50:26.671Z,549.1
2022-10-13T06:51:33.221Z,548
2022-10-13T06:52:39.785Z,550
2022-10-13T06:53:46.325Z,546.9
2022-10-13T06:54:52.942Z,551.9
2022-10-13T06:55:59.469Z,548.2
2022-10-13T06:57:48.751Z,553.7
2022-10-13T06:58:55.561Z,549.8
2022-10-13T07:00:02.323Z,552.4
2022-10-13T07:01:09.098Z,550.3
2022-10-13T07:02:15.938Z,554.6
2022-10-13T07:03:22.680Z,554.2
2022-10-13T07:04:29.560Z,552.4
2022-10-13T07:05:36.294Z,552.2
2022-10-13T07:06:43.123Z,553.5
2022-10-13T07:07:49.895Z,551.5
2022-10-13T07:08:56.620Z,550.8
2022-10-13T07:10:03.414Z,556.4
2022-10-13T07:11:10.194Z,553.6
2022-10-13T07:14:28.349Z,559.9
2022-10-13T07:16:07.090Z,558.7
2022-10-13T07:17:14.409Z,559.9
2022-10-13T07:18:21.675Z,555.5
2022-10-13T07:20:00.333Z,556.5
2022-10-13T07:21:39.057Z,562.4
2022-10-13T07:23:17.781Z,556.9
2022-10-13T07:24:56.615Z,559.8
2022-10-13T07:26:35.327Z,558.2
2022-10-13T07:28:13.983Z,559.3
2022-10-13T07:29:52.794Z,562.6
2022-10-13T07:31:31.436Z,558.8
2022-10-13T07:33:10.276Z,560.6
2022-10-13T07:34:49.946Z,559.1
2022-10-13T07:38:05.683Z,559.6
2022-10-13T07:39:12.145Z,561.1
2022-10-13T07:40:18.691Z,565.1
2022-10-13T07:41:25.240Z,565.5
2022-10-13T07:42:31.795Z,563.4
2022-10-13T07:43:38.361Z,569.4
2022-10-13T07:44:44.899Z,565
2022-10-13T07:45:51.492Z,565.9
2022-10-13T07:46:58.071Z,562.6
2022-10-13T07:48:04.666Z,568.9
2022-10-13T07:49:11.200Z,566.6
2022-10-13T07:50:17.756Z,566.1
2022-10-13T07:51:24.283Z,566.3
2022-10-13T07:52:30.762Z,567.3
2022-10-13T07:53:37.309Z,568.5
2022-10-13T07:54:43.912Z,570.2
2022-10-13T07:55:50.416Z,566.7
2022-10-13T07:56:56.967Z,567.7
2022-10-13T07:58:03.516Z,567.3
2022-10-13T07:59:10.177Z,566.5
2022-10-13T08:00:16.756Z,573
2022-10-13T08:01:23.185Z,568.2
2022-10-13T08:02:29.733Z,573.5
2022-10-13T08:03:36.315Z,570
2022-10-13T08:04:42.845Z,570
2022-10-13T08:05:49.627Z,570.9
2022-10-13T08:06:56.425Z,572.5
2022-10-13T08:08:03.218Z,569.7
2022-10-13T08:09:10.006Z,573.1
2022-10-13T08:10:16.801Z,572.5
2022-10-13T08:11:23.616Z,574.9
2022-10-13T08:12:30.456Z,572.2
2022-10-13T08:13:37.177Z,572
2022-10-13T08:14:43.959Z,571.6
2022-10-13T08:15:50.767Z,573.6
2022-10-13T08:16:57.584Z,574.6
2022-10-13T08:18:04.336Z,570.9
2022-10-13T08:19:11.121Z,573.6
2022-10-13T08:21:51.626Z,570.1
2022-10-13T08:23:30.380Z,573.2
2022-10-13T08:25:09.085Z,571.2
2022-10-13T08:26:47.831Z,574.4
2022-10-13T08:27:55.091Z,573
2022-10-13T08:29:02.354Z,573
2022-10-13T08:30:41.096Z,573.7
2022-10-13T08:32:19.836Z,573
2022-10-13T08:33:58.552Z,572.7
2022-10-13T08:35:37.295Z,578.4
2022-10-13T08:37:16.033Z,577.7
2022-10-13T08:38:54.766Z,576.5
2022-10-13T08:40:33.501Z,578.2
2022-10-13T08:44:23.097Z,578.3
2022-10-13T08:45:31.253Z,578.8
2022-10-13T08:48:46.922Z,579.5
2022-10-13T08:49:53.478Z,580.3
2022-10-13T08:51:00.026Z,582.4
2022-10-13T08:52:06.679Z,584.8
2022-10-13T08:53:13.124Z,585.5
2022-10-13T08:54:19.691Z,581.4
2022-10-13T08:55:26.224Z,585.8
2022-10-13T08:56:32.779Z,587.7
2022-10-13T08:57:39.332Z,583.8
2022-10-13T08:58:45.883Z,587.8
2022-10-13T08:59:52.431Z,583.8
2022-10-13T09:00:58.986Z,584.4
2022-10-13T09:02:05.534Z,584.1
2022-10-13T09:03:12.085Z,584.3
2022-10-13T09:04:18.631Z,584.1
2022-10-13T09:05:25.178Z,583.4
2022-10-13T09:06:31.736Z,583.6
2022-10-13T09:07:38.281Z,586
2022-10-13T09:08:44.827Z,584.8
2022-10-13T09:09:51.384Z,587.6
2022-10-13T09:10:57.938Z,586.6
2022-10-13T09:12:04.489Z,585.4
2022-10-13T09:13:11.037Z,585.3
2022-10-13T09:14:17.594Z,587.2
2022-10-13T09:15:24.138Z,584.4
2022-10-13T09:16:30.984Z,586.1
2022-10-13T09:17:37.740Z,587.1
2022-10-13T09:18:44.507Z,586.9
2022-10-13T09:19:51.296Z,589.8
2022-10-13T09:20:58.093Z,587.4
2022-10-13T09:22:04.877Z,588.5
2022-10-13T09:23:11.665Z,583.5
2022-10-13T09:24:18.459Z,587.4
2022-10-13T09:25:25.238Z,588.1
2022-10-13T09:26:32.033Z,587.2
2022-10-13T09:27:38.814Z,585.5
2022-10-13T09:28:45.587Z,584.7
2022-10-13T09:29:52.373Z,589.1
2022-10-13T09:33:10.591Z,584.6
2022-10-13T09:34:46.078Z,588.3
2022-10-13T09:35:53.330Z,586.9
2022-10-13T09:37:32.057Z,586.6
2022-10-13T09:39:10.796Z,583.9
2022-10-13T09:40:49.523Z,586
2022-10-13T09:42:28.260Z,585.6
2022-10-13T09:44:07.021Z,581.2
2022-10-13T09:45:45.735Z,585.1
2022-10-13T09:47:24.455Z,585.8
2022-10-13T09:49:03.186Z,587.6
2022-10-13T09:50:41.919Z,584.2
2022-10-13T09:51:49.179Z,584.2
2022-10-13T09:54:49.962Z,588.5
2022-10-13T09:58:05.684Z,588.2
2022-10-13T09:59:12.240Z,587
2022-10-13T10:00:18.781Z,590.7
2022-10-13T10:01:25.349Z,587.2
2022-10-13T10:02:31.875Z,586.1
2022-10-13T10:03:38.440Z,586
2022-10-13T10:04:44.999Z,586.8
2022-10-13T10:05:51.560Z,587.1
2022-10-13T10:06:58.076Z,586.9
2022-10-13T10:08:04.695Z,586.9
2022-10-13T10:10:17.714Z,586.2
2022-10-13T10:11:24.261Z,588.9
2022-10-13T10:12:30.813Z,588.4
2022-10-13T10:13:37.361Z,586.9
2022-10-13T10:14:43.921Z,585.9
2022-10-13T10:15:50.459Z,586.8
2022-10-13T10:16:57.015Z,586.7
2022-10-13T10:18:03.563Z,586.8
2022-10-13T10:19:10.110Z,585.3
2022-10-13T10:20:16.658Z,587.3
2022-10-13T10:21:23.238Z,587.6
2022-10-13T10:22:29.759Z,587.2
2022-10-13T10:23:36.309Z,587.4
2022-10-13T10:24:42.860Z,587.4
2022-10-13T10:25:49.653Z,588.1
2022-10-13T10:26:56.448Z,589.3
2022-10-13T10:28:03.227Z,590.9
2022-10-13T10:29:10.027Z,587.4
2022-10-13T10:30:16.804Z,589.4
2022-10-13T10:31:23.592Z,590
2022-10-13T10:32:30.417Z,594.3
2022-10-13T10:33:37.168Z,593.9
2022-10-13T10:34:43.974Z,591.7
2022-10-13T10:35:50.759Z,592.6
2022-10-13T10:36:57.549Z,595.9
2022-10-13T10:38:04.338Z,592.2
2022-10-13T10:39:11.131Z,591.3
2022-10-13T10:40:18.453Z,594
2022-10-13T10:41:57.170Z,595
2022-10-13T10:43:35.903Z,593.2
2022-10-13T10:45:14.622Z,594.9
2022-10-13T10:46:53.352Z,596.2
2022-10-13T10:48:32.078Z,596.5
2022-10-13T10:50:10.799Z,597.7
2022-10-13T10:51:49.694Z,597.2
2022-10-13T10:53:28.260Z,595.5
2022-10-13T10:55:06.992Z,596.3
2022-10-13T10:56:45.714Z,596.2
2022-10-13T10:58:24.473Z,598.5
2022-10-13T11:00:03.189Z,596.6
2022-10-13T11:04:11.185Z,598.7
2022-10-13T11:05:19.469Z,596.3
2022-10-13T11:07:26.877Z,597.6
2022-10-13T11:08:33.404Z,597.1
2022-10-13T11:09:39.953Z,599.8
2022-10-13T11:10:46.504Z,599.8
2022-10-13T11:11:53.068Z,598.3
2022-10-13T11:12:59.609Z,600.6
2022-10-13T11:14:06.157Z,602
2022-10-13T11:15:12.720Z,599
2022-10-13T11:16:19.257Z,598.5
2022-10-13T11:17:25.809Z,600.6
2022-10-13T11:18:32.363Z,599.6
2022-10-13T11:19:38.934Z,600.9
2022-10-13T11:20:45.468Z,599.4
2022-10-13T11:21:52.018Z,598.8
2022-10-13T11:22:58.572Z,600.5
2022-10-13T11:24:05.142Z,602.5
2022-10-13T11:25:11.697Z,603
2022-10-13T11:26:18.217Z,600.6
2022-10-13T11:27:24.767Z,602.7
2022-10-13T11:28:31.318Z,602.2
2022-10-13T11:29:37.865Z,599.8
2022-10-13T11:30:44.435Z,602.9
2022-10-13T11:31:51.035Z,601.1
2022-10-13T11:32:57.517Z,601.5
2022-10-13T11:34:04.168Z,602.9
2022-10-13T11:35:10.863Z,603.4
2022-10-13T11:36:17.639Z,603.6
2022-10-13T11:37:24.418Z,601.9
2022-10-13T11:38:31.208Z,607
2022-10-13T11:39:37.989Z,604.6
2022-10-13T11:40:44.785Z,605.4
2022-10-13T11:41:51.564Z,604.1
2022-10-13T11:42:58.352Z,604.8
2022-10-13T11:44:05.194Z,604.6
2022-10-13T11:45:11.923Z,605.2
2022-10-13T11:46:18.717Z,602.4
2022-10-13T11:47:25.494Z,603.4
2022-10-13T11:48:32.270Z,603.4
2022-10-13T11:51:50.484Z,601.5
2022-10-13T11:53:29.242Z,600.6
2022-10-13T11:55:07.962Z,602.3
2022-10-13T11:56:15.213Z,600.4
2022-10-13T11:57:22.481Z,600.3
2022-10-13T11:59:01.211Z,599.5
2022-10-13T12:00:39.964Z,600.9
2022-10-13T12:02:18.668Z,598.9
2022-10-13T12:03:57.440Z,601.6
2022-10-13T12:05:36.133Z,599.4
2022-10-13T12:07:14.887Z,602.8
2022-10-13T12:08:53.614Z,602.3
2022-10-13T12:10:32.333Z,604.3
2022-10-13T12:12:43.236Z,602.9
2022-10-13T12:14:40.311Z,602.8
2022-10-13T12:17:56.024Z,605.2
2022-10-13T12:19:02.527Z,606.1
2022-10-13T12:20:09.080Z,605.5
2022-10-13T12:21:15.635Z,605.2
2022-10-13T12:22:22.178Z,604
2022-10-13T12:23:28.716Z,602.2
2022-10-13T12:24:35.306Z,601.5
2022-10-13T12:25:41.819Z,601.4
2022-10-13T12:26:48.382Z,603
2022-10-13T12:27:54.920Z,598.9
2022-10-13T12:29:01.499Z,602.5
2022-10-13T12:30:08.029Z,601.5
2022-10-13T12:31:14.590Z,600.4
2022-10-13T12:32:21.123Z,601.6
2022-10-13T12:33:27.702Z,601.8
2022-10-13T12:34:34.246Z,599.8
2022-10-13T12:35:40.805Z,601.5
2022-10-13T12:36:47.334Z,600.2
2022-10-13T12:37:53.908Z,599.6
2022-10-13T12:39:00.421Z,599.7
2022-10-13T12:40:06.981Z,599.2
2022-10-13T12:41:13.524Z,600.2
2022-10-13T12:42:20.076Z,598.6
2022-10-13T12:43:26.623Z,599.1
2022-10-13T12:44:33.182Z,596.1
2022-10-13T12:45:39.964Z,597
2022-10-13T12:46:46.760Z,598.8
2022-10-13T12:47:53.603Z,599.2
2022-10-13T12:49:00.329Z,599.7
2022-10-13T12:50:07.130Z,598.8
2022-10-13T12:51:13.914Z,597.7
2022-10-13T12:52:20.707Z,597
2022-10-13T12:53:27.497Z,597.3
2022-10-13T12:54:34.277Z,598.8
2022-10-13T12:55:41.069Z,597.4
2022-10-13T12:56:47.855Z,596.5
2022-10-13T12:57:54.663Z,596.6
2022-10-13T12:59:01.435Z,595.6
2022-10-13T13:02:19.591Z,596.6
2022-10-13T13:03:26.958Z,597.2
2022-10-13T13:04:34.117Z,599
2022-10-13T13:06:12.848Z,595.5
2022-10-13T13:07:51.590Z,599.1
2022-10-13T13:09:30.329Z,598
2022-10-13T13:11:09.133Z,596.8
2022-10-13T13:12:47.786Z,597.1
2022-10-13T13:14:26.511Z,598.3
2022-10-13T13:16:05.243Z,597.4
2022-10-13T13:17:43.979Z,597.7
2022-10-13T13:19:22.707Z,596.6
2022-10-13T13:20:29.970Z,596
2022-10-13T13:23:30.756Z,594.9
2022-10-13T13:26:46.435Z,594.9
2022-10-13T13:27:53.004Z,594.6
2022-10-13T13:28:59.542Z,593.6
2022-10-13T13:30:06.110Z,594.6
2022-10-13T13:31:12.650Z,593.6
2022-10-13T13:32:19.197Z,595.1
2022-10-13T13:33:25.749Z,595.9
2022-10-13T13:34:32.292Z,593.1
2022-10-13T13:35:38.837Z,595.6
2022-10-13T13:36:45.397Z,595.4
2022-10-13T13:37:51.990Z,592.2
2022-10-13T13:38:58.501Z,591.3
2022-10-13T13:40:05.061Z,594.7
2022-10-13T13:41:11.598Z,591.9
2022-10-13T13:42:18.155Z,591
2022-10-13T13:43:24.703Z,594
2022-10-13T13:44:31.261Z,591.9
2022-10-13T13:45:37.846Z,595.2
2022-10-13T13:46:44.418Z,591.8
2022-10-13T13:47:50.920Z,591.1
2022-10-13T13:48:57.481Z,594.5
2022-10-13T13:50:04.040Z,587.9
2022-10-13T13:51:10.601Z,591.7
2022-10-13T13:52:17.150Z,591.4
2022-10-13T13:53:23.696Z,587
2022-10-13T13:54:30.477Z,589.3
2022-10-13T13:55:37.277Z,590.2
2022-10-13T13:56:44.069Z,590.1
2022-10-13T13:57:50.859Z,589.8
2022-10-13T13:58:57.641Z,589.8
2022-10-13T14:00:04.425Z,586.9
2022-10-13T14:01:11.222Z,587.2
2022-10-13T14:02:18.035Z,590.1
2022-10-13T14:03:24.790Z,586.9
2022-10-13T14:04:31.638Z,586.2
2022-10-13T14:05:38.374Z,587.3
2022-10-13T14:06:45.171Z,585.6
2022-10-13T14:07:51.949Z,586.5
2022-10-13T14:08:59.279Z,587.5
2022-10-13T14:10:37.984Z,586.3
2022-10-13T14:12:16.714Z,584.3
2022-10-13T14:13:55.445Z,586.3
2022-10-13T14:15:34.190Z,589.2
2022-10-13T14:17:12.937Z,585.6
2022-10-13T14:18:51.645Z,585.3
2022-10-13T14:20:30.381Z,584.1
2022-10-13T14:22:09.140Z,585
2022-10-13T14:23:47.872Z,588
2022-10-13T14:25:26.584Z,585.9
2022-10-13T14:27:05.313Z,583.8
2022-10-13T14:28:44.034Z,582.8
2022-10-13T14:32:52.038Z,582.9
2022-10-13T14:34:00.212Z,583.1
2022-10-13T14:36:07.637Z,582.7
2022-10-13T14:37:14.067Z,578.8
2022-10-13T14:38:20.536Z,582.8
2022-10-13T14:39:26.952Z,583.7
2022-10-13T14:40:33.357Z,582.1
2022-10-13T14:41:39.798Z,578.5
2022-10-13T14:42:46.222Z,580.7
2022-10-13T14:43:52.668Z,583
2022-10-13T14:44:59.085Z,579.6
2022-10-13T14:46:05.547Z,578.9
2022-10-13T14:47:11.951Z,583.7
2022-10-13T14:48:18.454Z,582.1
2022-10-13T14:49:24.827Z,580.9
2022-10-13T14:50:31.253Z,583.9
2022-10-13T14:51:37.675Z,582.2
2022-10-13T14:52:44.147Z,581.2
2022-10-13T14:53:50.585Z,581.4
2022-10-13T14:54:56.984Z,580.2
2022-10-13T14:56:03.413Z,583.6
2022-10-13T14:57:09.947Z,584.3
2022-10-13T14:58:16.284Z,582.5
2022-10-13T14:59:22.711Z,584.3
2022-10-13T15:00:29.140Z,580.7
2022-10-13T15:01:35.664Z,583.8
2022-10-13T15:02:42.111Z,581.5
2022-10-13T15:03:48.571Z,580.6
2022-10-13T15:04:55.122Z,579
2022-10-13T15:06:01.670Z,581.4
2022-10-13T15:07:08.351Z,581.4
2022-10-13T15:08:14.791Z,579
2022-10-13T15:09:21.333Z,578.6
2022-10-13T15:10:27.884Z,579.5
2022-10-13T15:11:34.435Z,581.3
2022-10-13T15:12:40.997Z,582.5
2022-10-13T15:13:47.536Z,578.1
2022-10-13T15:14:54.093Z,579.4
2022-10-13T15:16:00.642Z,578.7
2022-10-13T15:17:07.195Z,580.7
2022-10-13T15:18:14.993Z,581.6
2022-10-13T15:19:21.791Z,580
2022-10-13T15:20:28.571Z,579.4
2022-10-13T15:21:35.364Z,578.7
2022-10-13T15:22:42.170Z,576.9
2022-10-13T15:23:49.039Z,578.1
2022-10-13T15:24:55.806Z,576.3
2022-10-13T15:26:02.589Z,576.6
2022-10-13T15:27:09.334Z,578.4
2022-10-13T15:28:16.115Z,578.8
2022-10-13T15:29:22.920Z,576.5
2022-10-13T15:30:29.736Z,574.6
2022-10-13T15:31:36.495Z,578.5
2022-10-13T15:34:54.603Z,578.4
2022-10-13T15:36:01.859Z,576.8
2022-10-13T15:37:09.126Z,576.6
2022-10-13T15:38:47.854Z,575.5
2022-10-13T15:40:26.584Z,578
2022-10-13T15:43:44.050Z,573.3
2022-10-13T15:45:22.780Z,575.8
2022-10-13T15:47:01.630Z,579.6
2022-10-13T15:48:40.254Z,580.8
2022-10-13T15:50:19.081Z,576.2
2022-10-13T15:51:57.867Z,577.7
2022-10-13T15:53:04.999Z,578.4
2022-10-13T15:56:05.733Z,577.6
2022-10-13T15:59:21.477Z,576.5
2022-10-13T16:00:28.087Z,577.8
2022-10-13T16:01:34.632Z,576.6
2022-10-13T16:02:41.115Z,576.1
2022-10-13T16:03:47.703Z,576.9
2022-10-13T16:04:54.251Z,572.3
2022-10-13T16:06:00.830Z,573.4
2022-10-13T16:07:07.361Z,579.7
2022-10-13T16:08:13.894Z,575.9
2022-10-13T16:09:20.441Z,577
2022-10-13T16:10:27.027Z,575.5
2022-10-13T16:11:33.550Z,577.3
2022-10-13T16:12:40.114Z,574.8
2022-10-13T16:13:46.671Z,572.9
2022-10-13T16:14:53.221Z,574.2
2022-10-13T16:15:59.777Z,573.9